Time;durP1;ratioP1;P1;durP2;ratioP2;P2;SDS_P1;SDS_P2;PMS_P1;PMS_P2;Temp;Humidity;BMP_temperature;BMP_pressure;BME280_temperature;BME280_humidity;BME280_pressure;Samples;Min_cycle;Max_cycle;Signal;HPM_P1;HPM_P2
2021/11/25 00:00:09;;;;;;;40.32;24.82;;;;;;;-2.29;55.34;101961.91;438400;120;922752;-86
2021/11/25 00:01:16;;;;;;;27.36;20.22;;;;;;;-2.30;55.37;101953.04;430242;121;923040;-86
2021/11/25 00:02:21;;;;;;;30.77;20.45;;;;;;;-2.29;55.48;101964.58;430454;122;922749;-87
2021/11/25 00:03:25;;;;;;;28.31;21.91;;;;;;;-2.27;55.51;101958.20;430661;122;930377;-86
2021/11/25 00:05:03;;;;;;;37.36;23.61;;;;;;;-2.26;55.49;101951.05;438094;120;922538;-86
2021/11/25 00:06:07;;;;;;;30.62;21.44;;;;;;;-2.27;55.50;101955.53;430132;123;922681;-85
2021/11/25 00:07:17;;;;;;;32.79;22.05;;;;;;;-2.28;55.50;101948.47;431368;120;922698;-86
2021/11/25 00:08:20;;;;;;;25.69;19.66;;;;;;;-2.30;55.57;101950.37;431932;120;922759;-87
2021/11/25 00:09:24;;;;;;;26.89;20.16;;;;;;;-2.30;55.65;101947.70;438271;120;922516;-86
2021/11/25 00:10:32;;;;;;;25.41;19.41;;;;;;;-2.30;55.70;101949.51;437956;118;923699;-86
2021/11/25 00:11:36;;;;;;;26.09;17.60;;;;;;;-2.29;55.71;101952.09;438534;120;922787;-87
2021/11/25 00:12:40;;;;;;;30.65;18.54;;;;;;;-2.28;55.73;101944.94;438699;120;930542;-86
2021/11/25 00:13:44;;;;;;;20.42;16.29;;;;;;;-2.24;55.81;101952.65;438428;120;923152;-86
2021/11/25 00:14:48;;;;;;;24.32;16.79;;;;;;;-2.20;55.88;101934.59;438468;119;922890;-86
2021/11/25 00:15:52;;;;;;;20.82;17.42;;;;;;;-2.14;56.00;101940.40;430277;123;922574;-86
2021/11/25 00:16:56;;;;;;;24.22;18.22;;;;;;;-2.06;56.02;101939.91;431519;122;923044;-87
2021/11/25 00:18:00;;;;;;;29.67;21.36;;;;;;;-1.98;56.00;101944.73;431600;122;922595;-86
2021/11/25 00:19:04;;;;;;;27.98;20.87;;;;;;;-1.92;55.84;101953.20;438852;120;923097;-86
2021/11/25 00:20:11;;;;;;;37.74;24.98;;;;;;;-1.90;55.59;101945.95;430815;121;923137;-86
2021/11/25 00:21:15;;;;;;;39.46;25.76;;;;;;;-1.90;55.50;101945.09;432077;121;923118;-86
2021/11/25 00:22:19;;;;;;;43.96;26.62;;;;;;;-1.90;55.50;101942.42;432277;120;923050;-86
2021/11/25 00:23:23;;;;;;;38.15;26.91;;;;;;;-1.88;55.52;101946.72;431162;122;922495;-86
2021/11/25 00:24:26;;;;;;;51.09;28.99;;;;;;;-1.85;55.43;101948.32;432144;118;922355;-86
2021/11/25 00:25:30;;;;;;;50.96;29.49;;;;;;;-1.83;55.28;101944.60;439846;118;922326;-86
2021/11/25 00:26:36;;;;;;;50.04;29.89;;;;;;;-1.83;55.26;101936.58;440015;120;922541;-86
2021/11/25 00:27:40;;;;;;;47.97;28.20;;;;;;;-1.81;55.28;101937.31;431860;121;922429;-86
2021/11/25 00:28:45;;;;;;;48.81;28.93;;;;;;;-1.78;55.20;101941.62;432739;122;922591;-86
2021/11/25 00:29:49;;;;;;;55.67;31.43;;;;;;;-1.76;55.10;101945.02;425789;124;923082;-86
2021/11/25 00:30:53;;;;;;;47.17;29.59;;;;;;;-1.75;55.00;101938.72;427351;122;922624;-86
2021/11/25 00:31:57;;;;;;;53.89;29.69;;;;;;;-1.75;55.00;101942.26;438219;120;922510;-86
2021/11/25 00:33:01;;;;;;;48.26;28.65;;;;;;;-1.73;55.02;101942.16;438767;118;922334;-86
2021/11/25 00:34:05;;;;;;;44.34;28.21;;;;;;;-1.70;55.00;101934.78;439007;118;922539;-87
2021/11/25 00:35:13;;;;;;;58.84;30.02;;;;;;;-1.66;55.00;101935.45;438540;118;922659;-86
2021/11/25 00:36:16;;;;;;;46.80;28.49;;;;;;;-1.61;54.93;101938.67;438724;120;922624;-87
2021/11/25 00:37:20;;;;;;;52.15;29.45;;;;;;;-1.58;54.85;101945.61;439634;118;922769;-85
2021/11/25 00:38:25;;;;;;;57.03;32.55;;;;;;;-1.57;54.77;101940.17;438924;120;922571;-86
2021/11/25 00:39:28;;;;;;;63.45;32.77;;;;;;;-1.54;54.70;101947.11;439081;120;922883;-86
2021/11/25 00:40:32;;;;;;;52.52;32.11;;;;;;;-1.52;54.72;101939.85;439177;118;922639;-86
2021/11/25 00:41:37;;;;;;;54.18;32.01;;;;;;;-1.49;54.67;101943.16;438870;118;922738;-87
2021/11/25 00:42:41;;;;;;;61.09;33.51;;;;;;;-1.47;54.62;101932.37;430549;122;922512;-86
2021/11/25 00:43:45;;;;;;;59.28;31.56;;;;;;;-1.45;54.62;101928.64;431942;121;922621;-86
2021/11/25 00:44:49;;;;;;;55.15;30.52;;;;;;;-1.42;54.58;101928.42;438219;118;922573;-86
2021/11/25 00:45:52;;;;;;;54.85;32.94;;;;;;;-1.38;54.53;101929.09;437781;118;922917;-86
2021/11/25 00:46:57;;;;;;;58.34;32.59;;;;;;;-1.36;54.53;101924.47;430636;123;922623;-85
2021/11/25 00:48:01;;;;;;;59.65;32.17;;;;;;;-1.34;54.45;101928.77;431544;122;922953;-86
2021/11/25 00:49:05;;;;;;;48.58;29.82;;;;;;;-1.32;54.34;101934.84;430737;122;922679;-85
2021/11/25 00:50:11;;;;;;;56.78;32.54;;;;;;;-1.32;54.34;101929.50;430969;122;922632;-85
2021/11/25 00:51:15;;;;;;;46.67;28.86;;;;;;;-1.31;54.35;101925.87;438820;120;922659;-85
2021/11/25 00:52:19;;;;;;;53.31;29.35;;;;;;;-1.28;54.36;101932.84;429915;121;922786;-86
2021/11/25 00:53:23;;;;;;;47.31;28.11;;;;;;;-1.26;54.20;101925.55;432040;121;922537;-86
2021/11/25 00:54:27;;;;;;;46.55;28.02;;;;;;;-1.25;54.12;101929.94;435373;121;922611;-87
2021/11/25 00:55:31;;;;;;;48.28;28.06;;;;;;;-1.24;54.20;101933.47;431514;120;922482;-86
2021/11/25 00:56:35;;;;;;;49.28;28.26;;;;;;;-1.20;54.27;101938.50;433412;122;922485;-84
2021/11/25 00:57:39;;;;;;;41.26;26.32;;;;;;;-1.17;54.26;101937.45;439166;118;922580;-86
2021/11/25 00:58:43;;;;;;;47.09;28.72;;;;;;;-1.13;54.23;101938.94;425630;124;922906;-86
2021/11/25 00:59:47;;;;;;;52.71;28.98;;;;;;;-1.10;54.16;101942.25;426251;122;922601;-86
2021/11/25 01:00:51;;;;;;;45.69;27.84;;;;;;;-1.07;54.04;101936.70;432878;122;922944;-85
2021/11/25 01:01:56;;;;;;;41.83;25.83;;;;;;;-1.05;53.98;101932.11;433582;122;922611;-85
2021/11/25 01:03:00;;;;;;;41.03;26.15;;;;;;;-1.03;53.94;101934.66;434559;121;923357;-85
2021/11/25 01:04:05;;;;;;;41.90;25.91;;;;;;;-1.01;53.88;101932.73;433144;122;922659;-85
2021/11/25 01:05:11;;;;;;;42.14;25.49;;;;;;;-0.99;53.85;101928.11;434776;119;922946;-86
2021/11/25 01:06:15;;;;;;;41.42;24.99;;;;;;;-0.97;53.75;101929.73;433749;122;922575;-85
2021/11/25 01:07:18;;;;;;;44.43;25.93;;;;;;;-0.97;53.73;101924.38;434042;120;922548;-86
2021/11/25 01:08:22;;;;;;;39.79;26.61;;;;;;;-0.97;53.73;101923.52;439568;120;922746;-86
2021/11/25 01:09:26;;;;;;;43.55;25.75;;;;;;;-0.96;53.69;101926.09;429534;122;922505;-86
2021/11/25 01:10:32;;;;;;;41.64;25.65;;;;;;;-0.94;53.74;101928.67;423041;123;923035;-85
2021/11/25 01:11:36;;;;;;;35.44;24.32;;;;;;;-0.92;53.78;101924.05;420486;123;922569;-86
2021/11/25 01:12:41;;;;;;;37.41;24.74;;;;;;;-0.88;53.86;101925.53;427287;120;922826;-85
2021/11/25 01:13:45;;;;;;;39.97;24.51;;;;;;;-0.84;53.84;101927.05;435488;121;922694;-85
2021/11/25 01:14:50;;;;;;;36.07;24.41;;;;;;;-0.79;53.82;101926.72;433970;121;923367;-85
2021/11/25 01:15:54;;;;;;;41.80;24.57;;;;;;;-0.76;53.73;101932.70;433509;120;922722;-85
2021/11/25 01:16:58;;;;;;;39.10;24.95;;;;;;;-0.73;53.64;101927.15;433512;122;923073;-86
2021/11/25 01:18:05;;;;;;;34.58;24.55;;;;;;;-0.74;53.50;101922.75;439356;120;922740;-85
2021/11/25 01:19:09;;;;;;;37.32;25.47;;;;;;;-0.76;53.42;101919.31;432999;120;922810;-85
2021/11/25 01:20:17;;;;;;;48.75;26.52;;;;;;;-0.78;53.40;101917.73;434994;121;922556;-85
2021/11/25 01:21:20;;;;;;;46.76;27.64;;;;;;;-0.80;53.41;101931.22;433810;122;922931;-87
2021/11/25 01:22:24;;;;;;;53.06;27.86;;;;;;;-0.82;53.39;101921.56;439662;120;922737;-87
2021/11/25 01:23:30;;;;;;;48.12;26.82;;;;;;;-0.85;53.42;101918.16;432772;122;922365;-86
2021/11/25 01:24:34;;;;;;;42.26;26.01;;;;;;;-0.86;53.53;101919.13;433167;122;922734;-87
2021/11/25 01:25:38;;;;;;;41.24;25.86;;;;;;;-0.85;53.67;101925.34;438869;118;922662;-86
2021/11/25 01:26:42;;;;;;;46.56;27.01;;;;;;;-0.82;53.70;101919.75;433400;120;923174;-86
2021/11/25 01:27:46;;;;;;;40.09;25.54;;;;;;;-0.79;53.68;101919.55;433173;122;922541;-87
2021/11/25 01:28:50;;;;;;;43.18;25.84;;;;;;;-0.78;53.67;101917.73;445814;118;922971;-86
2021/11/25 01:29:54;;;;;;;40.55;25.46;;;;;;;-0.75;53.69;101925.53;439798;120;922880;-86
2021/11/25 01:31:05;;;;;;;35.90;24.02;;;;;;;-0.74;53.66;101929.93;433469;120;922615;-86
2021/11/25 01:32:07;;;;;;;39.56;23.54;;;;;;;-0.74;53.62;101920.08;423508;124;922771;-86
2021/11/25 01:33:12;;;;;;;39.76;23.44;;;;;;;-0.73;53.59;101923.61;439439;120;923068;-86
2021/11/25 01:34:16;;;;;;;39.81;24.93;;;;;;;-0.73;53.60;101920.94;433173;122;922935;-86
2021/11/25 01:35:20;;;;;;;38.51;24.30;;;;;;;-0.75;53.55;101914.82;433310;122;922726;-86
2021/11/25 01:36:23;;;;;;;42.26;26.18;;;;;;;-0.77;53.55;101908.73;433399;122;923166;-86
2021/11/25 01:37:28;;;;;;;37.43;25.48;;;;;;;-0.80;53.68;101917.83;433704;122;922658;-86
2021/11/25 01:38:32;;;;;;;36.29;25.45;;;;;;;-0.81;53.71;101920.61;433316;122;923183;-86
2021/11/25 01:39:36;;;;;;;37.71;23.54;;;;;;;-0.82;53.76;101922.42;435548;119;923160;-85
2021/11/25 01:40:41;;;;;;;34.92;24.63;;;;;;;-0.85;53.83;101917.30;431041;122;922630;-86
2021/11/25 01:41:47;;;;;;;36.33;24.67;;;;;;;-0.86;53.95;101915.59;432518;121;923049;-86
2021/11/25 01:42:51;;;;;;;38.39;23.62;;;;;;;-0.87;54.04;101906.70;434945;119;922603;-85
2021/11/25 01:43:55;;;;;;;30.01;23.52;;;;;;;-0.84;54.15;101919.02;432978;122;922625;-86
2021/11/25 01:44:58;;;;;;;38.67;24.61;;;;;;;-0.83;54.21;101918.06;435353;121;922563;-86
2021/11/25 01:46:05;;;;;;;39.74;22.34;;;;;;;-0.80;54.24;101915.16;433214;122;922743;-85
2021/11/25 01:47:11;;;;;;;34.71;22.38;;;;;;;-0.80;54.21;101912.48;433200;122;930607;-85
2021/11/25 01:48:16;;;;;;;35.10;22.36;;;;;;;-0.80;54.19;101915.16;439125;120;922930;-86
2021/11/25 01:49:22;;;;;;;29.61;21.72;;;;;;;-0.81;54.22;101916.11;433622;122;922600;-86
2021/11/25 01:50:27;;;;;;;24.05;20.26;;;;;;;-0.80;54.33;101923.19;438615;118;923103;-85
2021/11/25 01:51:31;;;;;;;29.47;21.61;;;;;;;-0.78;54.35;101921.27;433254;122;922602;-85
2021/11/25 01:52:35;;;;;;;29.84;20.75;;;;;;;-0.77;54.41;101917.59;433321;122;922697;-86
2021/11/25 01:53:39;;;;;;;32.53;22.35;;;;;;;-0.75;54.50;101922.86;433478;120;922766;-85
2021/11/25 01:54:42;;;;;;;29.82;21.51;;;;;;;-0.72;54.56;101936.91;433482;122;922982;-85
2021/11/25 01:55:47;;;;;;;29.77;20.89;;;;;;;-0.69;54.52;101928.64;435796;119;922446;-87
2021/11/25 01:56:53;;;;;;;31.17;20.86;;;;;;;-0.67;54.49;101929.39;433628;122;930501;-86
2021/11/25 01:57:56;;;;;;;28.57;21.31;;;;;;;-0.64;54.49;101928.30;439564;119;922533;-86
2021/11/25 01:59:00;;;;;;;29.00;21.21;;;;;;;-0.62;54.48;101932.59;433944;122;922441;-86
2021/11/25 02:00:07;;;;;;;30.09;20.71;;;;;;;-0.61;54.52;101936.99;433604;122;922750;-85
2021/11/25 02:01:15;;;;;;;28.88;20.29;;;;;;;-0.57;54.54;101929.58;439266;118;923793;-85
2021/11/25 02:02:21;;;;;;;29.85;21.27;;;;;;;-0.56;54.48;101937.52;439413;119;922561;-85
2021/11/25 02:03:26;;;;;;;29.10;20.21;;;;;;;-0.53;54.49;101937.28;433050;122;922576;-85
2021/11/25 02:04:30;;;;;;;30.44;20.00;;;;;;;-0.53;54.32;101942.64;433590;122;923159;-86
2021/11/25 02:05:35;;;;;;;28.98;20.49;;;;;;;-0.53;54.29;101944.45;433189;121;922966;-84
2021/11/25 02:06:40;;;;;;;27.66;20.01;;;;;;;-0.54;54.33;101942.74;433026;122;922590;-85
2021/11/25 02:07:44;;;;;;;24.68;19.37;;;;;;;-0.55;54.37;101941.87;433286;120;922827;-84
2021/11/25 02:08:47;;;;;;;27.07;20.09;;;;;;;-0.54;54.32;101934.70;433595;122;922599;-86
2021/11/25 02:09:51;;;;;;;26.42;19.61;;;;;;;-0.55;54.39;101933.84;438025;118;930309;-83
2021/11/25 02:10:57;;;;;;;25.96;19.49;;;;;;;-0.54;54.32;101937.38;439152;119;922603;-84
2021/11/25 02:12:00;;;;;;;25.04;19.64;;;;;;;-0.56;54.27;101933.98;433599;122;922657;-85
2021/11/25 02:13:04;;;;;;;23.98;19.99;;;;;;;-0.59;54.31;101934.18;434006;120;922763;-85
2021/11/25 02:14:08;;;;;;;23.72;19.53;;;;;;;-0.62;54.31;101932.59;433143;120;930788;-85
2021/11/25 02:15:14;;;;;;;29.42;20.15;;;;;;;-0.64;54.34;101930.98;434361;120;923152;-86
2021/11/25 02:16:18;;;;;;;27.84;19.94;;;;;;;-0.66;54.43;101928.41;433767;122;922662;-85
2021/11/25 02:17:22;;;;;;;25.62;19.16;;;;;;;-0.67;54.45;101932.07;433690;120;922609;-85
2021/11/25 02:18:26;;;;;;;32.42;20.66;;;;;;;-0.69;54.46;101933.98;433017;120;923272;-84
2021/11/25 02:19:30;;;;;;;30.08;20.14;;;;;;;-0.70;54.58;101940.30;433299;122;922620;-83
2021/11/25 02:20:40;;;;;;;28.87;19.54;;;;;;;-0.71;54.58;101935.91;433727;120;922579;-85
2021/11/25 02:21:45;;;;;;;39.28;20.46;;;;;;;-0.71;54.69;101932.38;437982;118;923582;-85
2021/11/25 02:22:49;;;;;;;25.62;19.28;;;;;;;-0.72;54.72;101931.55;439128;119;922540;-85
2021/11/25 02:23:53;;;;;;;24.02;19.05;;;;;;;-0.72;54.85;101934.22;433731;122;922913;-84
2021/11/25 02:24:56;;;;;;;27.79;20.37;;;;;;;-0.68;54.95;101930.35;434062;120;922741;-85
2021/11/25 02:26:01;;;;;;;24.68;18.04;;;;;;;-0.65;54.96;101930.12;432796;122;930334;-85
2021/11/25 02:27:05;;;;;;;24.11;18.65;;;;;;;-0.65;54.85;101926.58;433611;120;922886;-85
2021/11/25 02:28:09;;;;;;;26.19;19.40;;;;;;;-0.65;54.87;101931.94;435213;121;922963;-84
2021/11/25 02:29:14;;;;;;;30.41;18.32;;;;;;;-0.63;55.00;101938.05;433887;120;922536;-84
2021/11/25 02:30:17;;;;;;;22.04;17.77;;;;;;;-0.62;55.04;101935.27;433199;122;922740;-84
2021/11/25 02:31:21;;;;;;;23.85;18.45;;;;;;;-0.61;55.02;101928.09;439141;120;930680;-86
2021/11/25 02:32:37;;;;;;;26.64;18.22;;;;;;;-0.62;55.06;101926.38;432459;122;930578;-84
2021/11/25 02:33:42;;;;;;;27.81;18.29;;;;;;;-0.62;55.15;101929.92;438990;118;922646;-84
2021/11/25 02:34:45;;;;;;;23.30;17.51;;;;;;;-0.61;55.14;101936.13;433018;122;922879;-86
2021/11/25 02:35:49;;;;;;;20.02;17.61;;;;;;;-0.62;55.24;101932.59;433646;120;922887;-84
2021/11/25 02:36:53;;;;;;;20.70;16.87;;;;;;;-0.61;55.30;101942.35;433687;120;923596;-86
2021/11/25 02:37:57;;;;;;;24.66;18.25;;;;;;;-0.59;55.30;101940.39;432936;122;930664;-85
2021/11/25 02:39:01;;;;;;;20.07;17.24;;;;;;;-0.57;55.33;101940.30;433098;122;923060;-84
2021/11/25 02:40:14;;;;;;;23.89;17.32;;;;;;;-0.57;55.30;101938.48;433073;122;930549;-85
2021/11/25 02:41:18;;;;;;;22.26;17.65;;;;;;;-0.57;55.29;101935.80;433049;120;923129;-85
2021/11/25 02:42:22;;;;;;;22.24;17.59;;;;;;;-0.58;55.31;101938.58;433415;121;922690;-85
2021/11/25 02:43:29;;;;;;;24.10;18.07;;;;;;;-0.57;55.29;101932.26;436096;121;922539;-84
2021/11/25 02:44:33;;;;;;;21.72;16.64;;;;;;;-0.60;55.24;101937.82;434314;122;923244;-84
2021/11/25 02:46:07;;;;;;;19.51;16.59;;;;;;;-0.63;55.19;101935.37;434788;120;922538;-85
2021/11/25 02:47:11;;;;;;;18.59;15.82;;;;;;;-0.67;55.25;101932.07;433727;122;922522;-84
2021/11/25 02:48:16;;;;;;;21.24;17.33;;;;;;;-0.72;55.38;101931.55;434029;122;922821;-83
2021/11/25 02:49:20;;;;;;;22.37;17.42;;;;;;;-0.76;55.42;101921.13;433255;120;922768;-83
2021/11/25 02:50:26;;;;;;;21.70;18.16;;;;;;;-0.80;55.42;101933.04;432700;120;922568;-84
2021/11/25 02:51:35;;;;;;;25.04;17.09;;;;;;;-0.83;55.52;101931.45;433909;120;922546;-85
2021/11/25 02:52:40;;;;;;;22.53;17.93;;;;;;;-0.87;55.59;101932.61;442083;119;923027;-85
2021/11/25 02:53:45;;;;;;;21.73;17.95;;;;;;;-0.89;55.64;101937.23;440043;119;923009;-85
2021/11/25 02:54:49;;;;;;;22.44;17.98;;;;;;;-0.92;55.67;101932.94;430192;121;922839;-84
2021/11/25 02:55:58;;;;;;;20.78;17.29;;;;;;;-0.94;55.76;101931.35;423329;125;923387;-86
2021/11/25 02:57:02;;;;;;;24.62;17.82;;;;;;;-0.97;55.81;101929.73;423897;123;922782;-85
2021/11/25 02:58:06;;;;;;;22.57;18.24;;;;;;;-0.98;55.94;101927.16;427634;123;922782;-85
2021/11/25 02:59:10;;;;;;;21.76;17.27;;;;;;;-0.99;56.06;101926.30;428464;123;923093;-84
2021/11/25 03:00:24;;;;;;;24.04;18.28;;;;;;;-0.98;56.19;101924.47;428239;123;922695;-86
2021/11/25 03:01:31;;;;;;;26.09;18.40;;;;;;;-0.96;56.29;101927.91;427912;122;922657;-83
2021/11/25 03:02:41;;;;;;;24.17;18.53;;;;;;;-0.82;56.49;101925.10;470203;110;948044;-85
2021/11/25 03:03:46;;;;;;;24.56;18.92;;;;;;;-0.91;56.58;101925.77;460287;113;922460;-85
2021/11/25 03:04:50;;;;;;;27.55;19.45;;;;;;;-0.87;56.61;101929.93;456133;115;922840;-85
2021/11/25 03:05:54;;;;;;;28.84;20.15;;;;;;;-0.85;56.60;101931.55;455712;114;930713;-85
2021/11/25 03:06:57;;;;;;;27.38;20.02;;;;;;;-0.81;56.57;101923.28;456928;115;922523;-85
2021/11/25 03:08:05;;;;;;;23.09;19.60;;;;;;;-0.79;56.57;101929.41;456486;115;930355;-85
2021/11/25 03:09:11;;;;;;;32.53;21.14;;;;;;;-0.76;56.54;101931.84;455776;115;922789;-83
2021/11/25 03:10:15;;;;;;;25.41;19.95;;;;;;;-0.75;56.51;101928.20;455969;115;923064;-88
2021/11/25 03:11:21;;;;;;;24.54;19.75;;;;;;;-0.76;56.42;101929.17;456409;113;923108;-85
2021/11/25 03:12:24;;;;;;;29.81;19.99;;;;;;;-0.78;56.46;101926.62;454633;116;930878;-85
2021/11/25 03:13:29;;;;;;;27.22;20.31;;;;;;;-0.78;56.51;101928.44;454566;114;922650;-85
2021/11/25 03:14:32;;;;;;;29.41;20.12;;;;;;;-0.78;56.47;101918.59;454504;116;922651;-85
2021/11/25 03:15:38;;;;;;;30.13;20.58;;;;;;;-0.82;56.40;101925.10;455298;114;930440;-86
2021/11/25 03:16:42;;;;;;;28.13;20.34;;;;;;;-0.86;56.38;101924.48;456248;114;922595;-85
2021/11/25 03:17:45;;;;;;;26.72;19.66;;;;;;;-0.90;56.42;101938.20;456209;115;922876;-83
2021/11/25 03:18:50;;;;;;;24.96;19.66;;;;;;;-0.96;56.44;101936.80;455716;114;930389;-84
2021/11/25 03:19:54;;;;;;;20.29;17.96;;;;;;;-1.02;56.49;101936.38;457413;114;923063;-85
2021/11/25 03:20:58;;;;;;;27.46;19.23;;;;;;;-1.06;56.66;101934.87;456451;113;922989;-84
2021/11/25 03:22:04;;;;;;;22.92;18.02;;;;;;;-1.08;56.84;101939.47;456155;115;922697;-83
2021/11/25 03:23:08;;;;;;;23.33;17.23;;;;;;;-1.10;56.95;101928.86;456333;116;930723;-84
2021/11/25 03:24:12;;;;;;;22.69;17.67;;;;;;;-1.11;56.99;101932.53;456229;114;923080;-85
2021/11/25 03:25:16;;;;;;;24.21;18.28;;;;;;;-1.12;57.11;101929.95;447216;117;922644;-84
2021/11/25 03:26:24;;;;;;;24.10;17.44;;;;;;;-1.12;57.18;101935.30;448463;116;922680;-85
2021/11/25 03:27:29;;;;;;;18.24;16.22;;;;;;;-1.13;57.27;101930.91;456605;116;922974;-86
2021/11/25 03:28:33;;;;;;;21.71;17.51;;;;;;;-1.13;57.36;101937.12;456861;114;922895;-86
2021/11/25 03:29:36;;;;;;;18.10;16.31;;;;;;;-1.12;57.36;101938.84;455736;114;922622;-85
2021/11/25 03:30:41;;;;;;;19.29;16.56;;;;;;;-1.11;57.37;101937.02;457366;114;922868;-84
2021/11/25 03:31:45;;;;;;;22.53;17.80;;;;;;;-1.13;57.36;101941.61;456338;115;922508;-85
2021/11/25 03:32:48;;;;;;;17.34;15.54;;;;;;;-1.13;57.43;101939.80;455932;114;922573;-83
2021/11/25 03:33:54;;;;;;;20.70;16.14;;;;;;;-1.15;57.49;101931.00;456465;115;922529;-84
2021/11/25 03:35:02;;;;;;;19.33;15.99;;;;;;;-1.14;57.62;101932.73;456208;115;922622;-85
2021/11/25 03:36:07;;;;;;;20.56;15.96;;;;;;;-1.13;57.73;101936.27;455613;114;922630;-85
2021/11/25 03:37:13;;;;;;;24.58;16.97;;;;;;;-1.11;57.79;101932.53;456433;115;922488;-84
2021/11/25 03:38:19;;;;;;;20.61;17.16;;;;;;;-1.10;57.75;101936.06;455955;115;922569;-85
2021/11/25 03:39:22;;;;;;;19.96;17.07;;;;;;;-1.11;57.67;101937.02;456941;114;922679;-85
2021/11/25 03:40:26;;;;;;;18.57;16.25;;;;;;;-1.13;57.68;101933.59;456176;113;922634;-84
2021/11/25 03:41:30;;;;;;;18.94;16.28;;;;;;;-1.16;57.66;101932.00;456482;114;922895;-85
2021/11/25 03:42:34;;;;;;;18.80;16.85;;;;;;;-1.17;57.72;101935.63;458346;114;922273;-84
2021/11/25 03:43:38;;;;;;;19.06;17.02;;;;;;;-1.19;57.70;101934.01;458398;113;922377;-85
2021/11/25 03:44:44;;;;;;;19.04;16.46;;;;;;;-1.22;57.68;101932.42;458934;113;922511;-83
2021/11/25 03:45:47;;;;;;;19.82;16.88;;;;;;;-1.26;57.74;101923.73;457777;116;922143;-81
2021/11/25 03:46:51;;;;;;;18.08;16.18;;;;;;;-1.27;57.78;101931.87;457461;114;922207;-86
2021/11/25 03:47:54;;;;;;;20.54;17.58;;;;;;;-1.30;57.89;101930.26;457267;114;930522;-84
2021/11/25 03:48:58;;;;;;;25.28;17.05;;;;;;;-1.32;58.04;101932.17;456500;114;930429;-85
2021/11/25 03:50:03;;;;;;;24.93;18.03;;;;;;;-1.31;58.12;101930.36;457265;116;922925;-83
2021/11/25 03:51:09;;;;;;;19.38;16.21;;;;;;;-1.31;58.18;101931.22;456603;113;922998;-85
2021/11/25 03:52:13;;;;;;;22.07;17.20;;;;;;;-1.31;58.32;101931.22;456782;113;930575;-84
2021/11/25 03:53:17;;;;;;;22.67;17.81;;;;;;;-1.28;58.49;101931.02;457064;114;922931;-84
2021/11/25 03:54:20;;;;;;;23.29;17.41;;;;;;;-1.24;58.57;101930.80;457236;114;922597;-83
2021/11/25 03:55:24;;;;;;;22.58;17.22;;;;;;;-1.23;58.55;101920.00;455442;114;922490;-85
2021/11/25 03:56:28;;;;;;;21.35;16.63;;;;;;;-1.20;58.58;101926.94;457314;114;922572;-85
2021/11/25 03:57:32;;;;;;;19.17;16.49;;;;;;;-1.19;58.52;101932.19;456987;116;923327;-85
2021/11/25 03:58:36;;;;;;;21.26;16.44;;;;;;;-1.19;58.55;101929.52;456519;113;923409;-85
2021/11/25 03:59:40;;;;;;;21.74;15.85;;;;;;;-1.18;58.59;101927.70;457186;114;922717;-84
2021/11/25 04:00:44;;;;;;;17.89;16.02;;;;;;;-1.16;58.62;101941.84;456041;114;922768;-84
2021/11/25 04:01:48;;;;;;;17.07;15.31;;;;;;;-1.15;58.64;101935.50;456114;114;922894;-84
2021/11/25 04:02:52;;;;;;;18.81;15.16;;;;;;;-1.16;58.66;101934.67;454034;115;925692;-84
2021/11/25 04:03:56;;;;;;;16.98;15.30;;;;;;;-1.15;58.61;101932.83;454060;115;922943;-85
2021/11/25 04:05:00;;;;;;;21.14;15.95;;;;;;;-1.13;58.68;101930.91;453723;116;922958;-86
2021/11/25 04:06:04;;;;;;;18.29;15.12;;;;;;;-1.10;58.70;101941.42;453280;115;922690;-83
2021/11/25 04:07:08;;;;;;;19.85;15.22;;;;;;;-1.10;58.71;101938.74;445145;117;922614;-84
2021/11/25 04:08:12;;;;;;;20.28;16.34;;;;;;;-1.09;58.63;101943.11;444456;119;922814;-83
2021/11/25 04:09:16;;;;;;;19.33;14.85;;;;;;;-1.09;58.60;101945.78;444781;118;922499;-85
2021/11/25 04:10:20;;;;;;;16.73;14.74;;;;;;;-1.10;58.58;101946.77;444282;118;923307;-84
2021/11/25 04:11:24;;;;;;;23.54;15.56;;;;;;;-1.11;58.53;101942.37;444582;117;922653;-84
2021/11/25 04:12:27;;;;;;;21.11;15.25;;;;;;;-1.13;58.52;101934.45;444865;118;922864;-84
2021/11/25 04:13:31;;;;;;;27.17;16.64;;;;;;;-1.14;58.58;101935.41;433207;122;922785;-84
2021/11/25 04:14:35;;;;;;;18.14;15.55;;;;;;;-1.15;58.68;101938.17;434797;118;922827;-85
2021/11/25 04:15:39;;;;;;;19.35;14.84;;;;;;;-1.15;58.75;101949.73;441962;118;922768;-85
2021/11/25 04:16:42;;;;;;;21.63;15.53;;;;;;;-1.16;58.78;101945.37;437452;120;922594;-87
2021/11/25 04:17:47;;;;;;;15.68;14.09;;;;;;;-1.15;58.83;101947.06;438042;120;930490;-85
2021/11/25 04:18:50;;;;;;;19.72;15.60;;;;;;;-1.14;58.82;101948.78;437507;119;922544;-85
2021/11/25 04:19:56;;;;;;;23.34;16.44;;;;;;;-1.13;58.89;101938.94;437125;119;922523;-84
2021/11/25 04:21:00;;;;;;;16.51;14.61;;;;;;;-1.12;58.79;101940.66;437194;121;930483;-84
2021/11/25 04:22:04;;;;;;;18.19;15.25;;;;;;;-1.13;58.75;101934.45;438333;120;922914;-84
2021/11/25 04:23:09;;;;;;;17.62;15.45;;;;;;;-1.14;58.81;101940.75;436649;119;922599;-85
2021/11/25 04:24:15;;;;;;;20.24;16.36;;;;;;;-1.13;58.75;101939.80;444797;119;922554;-84
2021/11/25 04:25:19;;;;;;;18.38;16.22;;;;;;;-1.15;58.71;101936.36;444684;119;922489;-85
2021/11/25 04:26:23;;;;;;;24.72;16.93;;;;;;;-1.18;58.73;101941.94;443601;118;922428;-84
2021/11/25 04:27:28;;;;;;;19.32;16.39;;;;;;;-1.19;58.76;101939.36;444056;118;922473;-84
2021/11/25 04:28:32;;;;;;;23.46;18.24;;;;;;;-1.22;58.76;101943.13;444027;118;923337;-85
2021/11/25 04:29:39;;;;;;;19.41;16.99;;;;;;;-1.26;58.77;101942.45;444661;117;922610;-84
2021/11/25 04:35:57;;;;;;;25.76;18.42;;;;;;;-1.41;59.13;101940.84;443974;119;922652;-86
2021/11/25 04:37:01;;;;;;;27.36;19.63;;;;;;;-1.45;59.22;101942.02;444422;119;922942;-85
2021/11/25 04:38:17;;;;;;;30.77;18.62;;;;;;;-1.45;59.35;101946.51;444279;118;922630;-83
2021/11/25 04:39:23;;;;;;;24.53;18.33;;;;;;;-1.45;59.42;101949.19;444370;117;930392;-84
2021/11/25 04:40:28;;;;;;;23.80;18.72;;;;;;;-1.47;59.47;101949.28;443920;118;922596;-83
2021/11/25 04:41:33;;;;;;;25.41;19.37;;;;;;;-1.47;59.55;101951.95;444843;117;922637;-85
2021/11/25 04:42:36;;;;;;;23.22;19.24;;;;;;;-1.47;59.61;101949.28;444021;117;922628;-86
2021/11/25 04:43:44;;;;;;;28.86;20.16;;;;;;;-1.47;59.62;101957.30;444379;118;930634;-84
2021/11/25 04:44:48;;;;;;;24.44;19.67;;;;;;;-1.47;59.68;101946.60;444390;119;922581;-84
2021/11/25 04:45:53;;;;;;;22.05;19.16;;;;;;;-1.46;59.72;101950.14;444557;119;922645;-84
2021/11/25 04:46:57;;;;;;;22.49;19.74;;;;;;;-1.46;59.75;101945.65;444668;117;923391;-85
2021/11/25 04:48:01;;;;;;;25.65;19.07;;;;;;;-1.47;59.77;101943.93;444401;119;922581;-82
2021/11/25 04:49:05;;;;;;;24.31;18.96;;;;;;;-1.45;59.79;101947.38;444674;119;922496;-84
2021/11/25 04:50:11;;;;;;;21.64;19.48;;;;;;;-1.45;59.85;101946.51;443752;119;930884;-84
2021/11/25 04:51:17;;;;;;;21.42;19.16;;;;;;;-1.44;59.84;101945.55;434821;119;923553;-85
2021/11/25 04:52:21;;;;;;;23.18;19.08;;;;;;;-1.45;59.86;101944.69;443431;119;922514;-84
2021/11/25 04:53:25;;;;;;;30.12;18.24;;;;;;;-1.46;59.89;101945.65;444808;119;923065;-84
2021/11/25 04:54:29;;;;;;;25.40;19.57;;;;;;;-1.46;59.95;101945.65;443627;117;922636;-85
2021/11/25 04:55:33;;;;;;;27.26;19.83;;;;;;;-1.46;59.97;101950.14;444142;119;924924;-83
2021/11/25 04:56:39;;;;;;;23.89;19.07;;;;;;;-1.45;59.98;101951.86;444553;119;922674;-85